sensor_id;sensor_type;location;lat;lon;timestamp;temperature;humidity
35563;DHT22;21665;40.108;18.302;2024-03-22T00:01:05;8.40;99.90
35563;DHT22;21665;40.108;18.302;2024-03-22T00:03:31;8.30;99.90
35563;DHT22;21665;40.108;18.302;2024-03-22T00:05:57;8.30;99.90
35563;DHT22;21665;40.108;18.302;2024-03-22T00:08:23;8.30;99.90
35563;DHT22;21665;40.108;18.302;2024-03-22T00:10:50;8.20;99.90
35563;DHT22;21665;40.108;18.302;2024-03-22T00:13:17;8.20;99.90
35563;DHT22;21665;40.108;18.302;2024-03-22T00:15:43;8.10;99.90
35563;DHT22;21665;40.108;18.302;2024-03-22T00:18:10;8.10;99.90
35563;DHT22;21665;40.108;18.302;2024-03-22T00:20:36;8.10;99.90
35563;DHT22;21665;40.108;18.302;2024-03-22T00:23:03;8.10;99.90
35563;DHT22;21665;40.108;18.302;2024-03-22T00:25:29;8.10;99.90
35563;DHT22;21665;40.108;18.302;2024-03-22T00:27:56;8.10;99.90
35563;DHT22;21665;40.108;18.302;2024-03-22T00:30:22;8.10;99.90
35563;DHT22;21665;40.108;18.302;2024-03-22T00:32:48;8.10;99.90
35563;DHT22;21665;40.108;18.302;2024-03-22T00:35:14;8.10;99.90
35563;DHT22;21665;40.108;18.302;2024-03-22T00:37:40;8.00;99.90
35563;DHT22;21665;40.108;18.302;2024-03-22T00:40:07;8.00;99.90
35563;DHT22;21665;40.108;18.302;2024-03-22T00:42:33;8.00;99.90
35563;DHT22;21665;40.108;18.302;2024-03-22T00:44:59;7.90;99.90
35563;DHT22;21665;40.108;18.302;2024-03-22T00:47:25;7.90;99.90
35563;DHT22;21665;40.108;18.302;2024-03-22T00:49:52;7.90;99.90
35563;DHT22;21665;40.108;18.302;2024-03-22T00:52:18;7.90;99.90
35563;DHT22;21665;40.108;18.302;2024-03-22T00:54:44;7.90;99.90
35563;DHT22;21665;40.108;18.302;2024-03-22T00:57:10;7.80;99.90
35563;DHT22;21665;40.108;18.302;2024-03-22T00:59:37;7.90;99.90
35563;DHT22;21665;40.108;18.302;2024-03-22T01:02:03;7.90;99.90
35563;DHT22;21665;40.108;18.302;2024-03-22T01:04:29;7.90;99.90
35563;DHT22;21665;40.108;18.302;2024-03-22T01:06:56;7.90;99.90
35563;DHT22;21665;40.108;18.302;2024-03-22T01:09:22;7.90;99.90
35563;DHT22;21665;40.108;18.302;2024-03-22T01:11:48;7.90;99.90
35563;DHT22;21665;40.108;18.302;2024-03-22T01:14:15;7.90;99.90
35563;DHT22;21665;40.108;18.302;2024-03-22T01:16:41;7.90;99.90
35563;DHT22;21665;40.108;18.302;2024-03-22T01:19:11;8.00;99.90
35563;DHT22;21665;40.108;18.302;2024-03-22T01:21:38;8.10;99.90
35563;DHT22;21665;40.108;18.302;2024-03-22T01:24:04;8.00;99.90
35563;DHT22;21665;40.108;18.302;2024-03-22T01:26:33;8.10;99.90
35563;DHT22;21665;40.108;18.302;2024-03-22T01:28:59;8.00;99.90
35563;DHT22;21665;40.108;18.302;2024-03-22T01:31:26;8.00;99.90
35563;DHT22;21665;40.108;18.302;2024-03-22T01:33:52;7.90;99.90
35563;DHT22;21665;40.108;18.302;2024-03-22T01:36:18;7.90;99.90
35563;DHT22;21665;40.108;18.302;2024-03-22T01:38:45;7.80;99.90
35563;DHT22;21665;40.108;18.302;2024-03-22T01:41:12;7.80;99.90
35563;DHT22;21665;40.108;18.302;2024-03-22T01:43:38;7.90;99.90
35563;DHT22;21665;40.108;18.302;2024-03-22T01:46:04;7.80;99.90
35563;DHT22;21665;40.108;18.302;2024-03-22T01:48:34;7.80;99.90
35563;DHT22;21665;40.108;18.302;2024-03-22T01:51:02;7.70;99.90
35563;DHT22;21665;40.108;18.302;2024-03-22T01:53:28;7.70;99.90
35563;DHT22;21665;40.108;18.302;2024-03-22T01:55:54;7.70;99.90
35563;DHT22;21665;40.108;18.302;2024-03-22T01:58:21;7.60;99.90
35563;DHT22;21665;40.108;18.302;2024-03-22T02:00:48;7.60;99.90
35563;DHT22;21665;40.108;18.302;2024-03-22T02:03:15;7.60;99.90
35563;DHT22;21665;40.108;18.302;2024-03-22T02:05:41;7.60;99.90
35563;DHT22;21665;40.108;18.302;2024-03-22T02:08:07;7.60;99.90
35563;DHT22;21665;40.108;18.302;2024-03-22T02:10:33;7.60;99.90
35563;DHT22;21665;40.108;18.302;2024-03-22T02:12:59;7.50;99.90
35563;DHT22;21665;40.108;18.302;2024-03-22T02:15:29;7.50;99.90
35563;DHT22;21665;40.108;18.302;2024-03-22T02:17:56;7.50;99.90
35563;DHT22;21665;40.108;18.302;2024-03-22T02:20:22;7.40;99.90
35563;DHT22;21665;40.108;18.302;2024-03-22T02:22:48;7.40;99.90
35563;DHT22;21665;40.108;18.302;2024-03-22T02:25:14;7.40;99.90
35563;DHT22;21665;40.108;18.302;2024-03-22T02:27:41;7.30;99.90
35563;DHT22;21665;40.108;18.302;2024-03-22T02:30:08;7.30;99.90
35563;DHT22;21665;40.108;18.302;2024-03-22T02:32:34;7.30;99.90
35563;DHT22;21665;40.108;18.302;2024-03-22T02:35:00;7.30;99.90
35563;DHT22;21665;40.108;18.302;2024-03-22T02:37:26;7.30;99.90
35563;DHT22;21665;40.108;18.302;2024-03-22T02:39:54;7.30;99.90
35563;DHT22;21665;40.108;18.302;2024-03-22T02:42:21;7.30;99.90
35563;DHT22;21665;40.108;18.302;2024-03-22T02:44:47;7.20;99.90
35563;DHT22;21665;40.108;18.302;2024-03-22T02:47:13;7.30;99.90
35563;DHT22;21665;40.108;18.302;2024-03-22T02:49:41;7.30;99.90
35563;DHT22;21665;40.108;18.302;2024-03-22T02:52:08;7.30;99.90
35563;DHT22;21665;40.108;18.302;2024-03-22T02:54:34;7.40;99.90
35563;DHT22;21665;40.108;18.302;2024-03-22T02:57:00;7.40;99.90
35563;DHT22;21665;40.108;18.302;2024-03-22T02:59:30;7.30;99.90
35563;DHT22;21665;40.108;18.302;2024-03-22T03:01:56;7.40;99.90
35563;DHT22;21665;40.108;18.302;2024-03-22T03:04:22;7.40;99.90
35563;DHT22;21665;40.108;18.302;2024-03-22T03:06:49;7.40;99.90
35563;DHT22;21665;40.108;18.302;2024-03-22T03:09:15;7.30;99.90
35563;DHT22;21665;40.108;18.302;2024-03-22T03:11:41;7.40;99.90
35563;DHT22;21665;40.108;18.302;2024-03-22T03:14:07;7.40;99.90
35563;DHT22;21665;40.108;18.302;2024-03-22T03:16:33;7.30;99.90
35563;DHT22;21665;40.108;18.302;2024-03-22T03:19:06;7.30;99.90
35563;DHT22;21665;40.108;18.302;2024-03-22T03:21:32;7.40;99.90
35563;DHT22;21665;40.108;18.302;2024-03-22T03:23:58;7.40;99.90
35563;DHT22;21665;40.108;18.302;2024-03-22T03:26:24;7.40;99.90
35563;DHT22;21665;40.108;18.302;2024-03-22T03:28:50;7.50;99.90
35563;DHT22;21665;40.108;18.302;2024-03-22T03:31:16;7.60;99.90
35563;DHT22;21665;40.108;18.302;2024-03-22T03:33:43;7.60;99.90
35563;DHT22;21665;40.108;18.302;2024-03-22T03:36:09;7.70;99.90
35563;DHT22;21665;40.108;18.302;2024-03-22T03:38:35;7.70;99.90
35563;DHT22;21665;40.108;18.302;2024-03-22T03:41:03;7.80;99.90
35563;DHT22;21665;40.108;18.302;2024-03-22T03:43:29;7.80;99.90
35563;DHT22;21665;40.108;18.302;2024-03-22T03:45:56;7.70;99.90
35563;DHT22;21665;40.108;18.302;2024-03-22T03:48:22;7.70;99.90
35563;DHT22;21665;40.108;18.302;2024-03-22T03:50:55;7.70;99.90
35563;DHT22;21665;40.108;18.302;2024-03-22T03:53:25;7.80;99.90
35563;DHT22;21665;40.108;18.302;2024-03-22T03:55:51;7.70;99.90
35563;DHT22;21665;40.108;18.302;2024-03-22T03:58:17;7.70;99.90
35563;DHT22;21665;40.108;18.302;2024-03-22T04:00:43;7.70;99.90
35563;DHT22;21665;40.108;18.302;2024-03-22T04:03:10;7.70;99.90
35563;DHT22;21665;40.108;18.302;2024-03-22T04:05:37;7.70;99.90
35563;DHT22;21665;40.108;18.302;2024-03-22T04:08:03;7.70;99.90
35563;DHT22;21665;40.108;18.302;2024-03-22T04:10:30;7.60;99.90
35563;DHT22;21665;40.108;18.302;2024-03-22T04:12:59;7.60;99.90
35563;DHT22;21665;40.108;18.302;2024-03-22T04:15:25;7.60;99.90
35563;DHT22;21665;40.108;18.302;2024-03-22T04:17:51;7.60;99.90
35563;DHT22;21665;40.108;18.302;2024-03-22T04:20:17;7.70;99.90
35563;DHT22;21665;40.108;18.302;2024-03-22T04:22:43;7.70;99.90
35563;DHT22;21665;40.108;18.302;2024-03-22T04:25:09;7.70;99.90
35563;DHT22;21665;40.108;18.302;2024-03-22T04:27:36;7.80;99.90
35563;DHT22;21665;40.108;18.302;2024-03-22T04:30:03;7.80;99.90
35563;DHT22;21665;40.108;18.302;2024-03-22T04:32:29;7.90;99.90
35563;DHT22;21665;40.108;18.302;2024-03-22T04:34:56;7.90;99.90
35563;DHT22;21665;40.108;18.302;2024-03-22T04:37:22;7.80;99.90
35563;DHT22;21665;40.108;18.302;2024-03-22T04:39:49;7.90;99.90
35563;DHT22;21665;40.108;18.302;2024-03-22T04:42:15;7.80;99.90
35563;DHT22;21665;40.108;18.302;2024-03-22T04:44:45;7.80;99.90
35563;DHT22;21665;40.108;18.302;2024-03-22T04:47:11;7.80;99.90
35563;DHT22;21665;40.108;18.302;2024-03-22T04:49:38;7.80;99.90
35563;DHT22;21665;40.108;18.302;2024-03-22T04:52:04;7.90;99.90
35563;DHT22;21665;40.108;18.302;2024-03-22T04:54:30;7.90;99.90
35563;DHT22;21665;40.108;18.302;2024-03-22T04:56:56;7.90;99.90
35563;DHT22;21665;40.108;18.302;2024-03-22T04:59:23;8.00;99.90
35563;DHT22;21665;40.108;18.302;2024-03-22T05:01:49;8.00;99.90
35563;DHT22;21665;40.108;18.302;2024-03-22T05:04:15;8.10;99.90
35563;DHT22;21665;40.108;18.302;2024-03-22T05:06:42;8.20;99.90
35563;DHT22;21665;40.108;18.302;2024-03-22T05:09:08;8.20;99.90
35563;DHT22;21665;40.108;18.302;2024-03-22T05:11:36;8.20;99.90
35563;DHT22;21665;40.108;18.302;2024-03-22T05:14:05;8.30;99.90
35563;DHT22;21665;40.108;18.302;2024-03-22T05:16:31;8.30;99.90
35563;DHT22;21665;40.108;18.302;2024-03-22T05:18:58;8.40;99.90
35563;DHT22;21665;40.108;18.302;2024-03-22T05:21:24;8.50;99.90
35563;DHT22;21665;40.108;18.302;2024-03-22T05:23:51;8.60;99.90
35563;DHT22;21665;40.108;18.302;2024-03-22T05:26:17;8.80;99.90
35563;DHT22;21665;40.108;18.302;2024-03-22T05:28:45;8.80;99.90
35563;DHT22;21665;40.108;18.302;2024-03-22T05:31:11;8.90;99.90
35563;DHT22;21665;40.108;18.302;2024-03-22T05:33:37;9.00;99.90
35563;DHT22;21665;40.108;18.302;2024-03-22T05:36:04;9.10;99.90
35563;DHT22;21665;40.108;18.302;2024-03-22T05:38:33;9.20;99.90
35563;DHT22;21665;40.108;18.302;2024-03-22T05:41:08;9.20;99.90
35563;DHT22;21665;40.108;18.302;2024-03-22T05:43:35;9.30;99.90
35563;DHT22;21665;40.108;18.302;2024-03-22T05:46:01;9.40;99.90
35563;DHT22;21665;40.108;18.302;2024-03-22T05:48:27;9.40;99.90
35563;DHT22;21665;40.108;18.302;2024-03-22T05:50:54;9.50;99.90
35563;DHT22;21665;40.108;18.302;2024-03-22T05:53:21;9.60;99.90
35563;DHT22;21665;40.108;18.302;2024-03-22T05:55:47;9.70;99.90
35563;DHT22;21665;40.108;18.302;2024-03-22T05:58:14;9.80;99.90
35563;DHT22;21665;40.108;18.302;2024-03-22T06:00:40;9.90;99.90
35563;DHT22;21665;40.108;18.302;2024-03-22T06:03:07;10.00;99.90
35563;DHT22;21665;40.108;18.302;2024-03-22T06:05:33;10.10;99.90
35563;DHT22;21665;40.108;18.302;2024-03-22T06:08:00;10.10;99.90
35563;DHT22;21665;40.108;18.302;2024-03-22T06:10:26;10.20;99.90
35563;DHT22;21665;40.108;18.302;2024-03-22T06:12:52;10.30;99.90
35563;DHT22;21665;40.108;18.302;2024-03-22T06:15:18;10.40;99.90
35563;DHT22;21665;40.108;18.302;2024-03-22T06:17:45;10.50;99.90
35563;DHT22;21665;40.108;18.302;2024-03-22T06:20:12;10.60;99.90
35563;DHT22;21665;40.108;18.302;2024-03-22T06:22:39;10.70;99.90
35563;DHT22;21665;40.108;18.302;2024-03-22T06:25:05;10.80;99.90
35563;DHT22;21665;40.108;18.302;2024-03-22T06:27:31;11.00;99.90
35563;DHT22;21665;40.108;18.302;2024-03-22T06:29:58;11.20;99.90
35563;DHT22;21665;40.108;18.302;2024-03-22T06:32:24;11.30;99.90
35563;DHT22;21665;40.108;18.302;2024-03-22T06:34:50;11.60;99.90
35563;DHT22;21665;40.108;18.302;2024-03-22T06:37:17;11.90;99.90
35563;DHT22;21665;40.108;18.302;2024-03-22T06:39:43;12.20;99.90
35563;DHT22;21665;40.108;18.302;2024-03-22T06:42:09;12.50;99.90
35563;DHT22;21665;40.108;18.302;2024-03-22T06:44:35;12.80;99.90
35563;DHT22;21665;40.108;18.302;2024-03-22T06:47:02;13.10;99.90
35563;DHT22;21665;40.108;18.302;2024-03-22T06:49:28;13.40;99.90
35563;DHT22;21665;40.108;18.302;2024-03-22T06:51:55;14.20;99.90
35563;DHT22;21665;40.108;18.302;2024-03-22T06:54:21;14.30;99.90
35563;DHT22;21665;40.108;18.302;2024-03-22T06:56:48;14.40;99.90
35563;DHT22;21665;40.108;18.302;2024-03-22T06:59:14;14.30;99.90
35563;DHT22;21665;40.108;18.302;2024-03-22T07:01:41;14.10;99.90
35563;DHT22;21665;40.108;18.302;2024-03-22T07:04:07;14.20;99.90
35563;DHT22;21665;40.108;18.302;2024-03-22T07:06:34;14.30;99.90
35563;DHT22;21665;40.108;18.302;2024-03-22T07:09:00;14.50;99.90
35563;DHT22;21665;40.108;18.302;2024-03-22T07:11:26;14.70;99.90
35563;DHT22;21665;40.108;18.302;2024-03-22T07:13:53;14.90;99.90
35563;DHT22;21665;40.108;18.302;2024-03-22T07:16:19;15.10;99.90
35563;DHT22;21665;40.108;18.302;2024-03-22T07:18:45;15.20;99.90
35563;DHT22;21665;40.108;18.302;2024-03-22T07:21:11;15.60;99.90
35563;DHT22;21665;40.108;18.302;2024-03-22T07:23:38;16.20;99.90
35563;DHT22;21665;40.108;18.302;2024-03-22T07:26:04;16.20;99.90
35563;DHT22;21665;40.108;18.302;2024-03-22T07:28:31;16.90;99.90
35563;DHT22;21665;40.108;18.302;2024-03-22T07:30:58;17.50;99.90
35563;DHT22;21665;40.108;18.302;2024-03-22T07:33:24;17.40;99.90
35563;DHT22;21665;40.108;18.302;2024-03-22T07:35:50;17.20;99.90
35563;DHT22;21665;40.108;18.302;2024-03-22T07:38:17;16.80;99.90
35563;DHT22;21665;40.108;18.302;2024-03-22T07:40:43;16.60;99.90
35563;DHT22;21665;40.108;18.302;2024-03-22T07:43:10;16.50;99.90
35563;DHT22;21665;40.108;18.302;2024-03-22T07:45:37;16.20;99.90
35563;DHT22;21665;40.108;18.302;2024-03-22T07:48:05;16.10;99.90
35563;DHT22;21665;40.108;18.302;2024-03-22T07:50:31;16.00;99.90
35563;DHT22;21665;40.108;18.302;2024-03-22T07:52:57;16.20;99.90
35563;DHT22;21665;40.108;18.302;2024-03-22T07:55:24;16.20;99.90
35563;DHT22;21665;40.108;18.302;2024-03-22T07:57:51;16.20;99.90
35563;DHT22;21665;40.108;18.302;2024-03-22T08:00:18;16.30;99.90
35563;DHT22;21665;40.108;18.302;2024-03-22T08:02:44;16.20;99.90
35563;DHT22;21665;40.108;18.302;2024-03-22T08:05:11;16.30;99.90
35563;DHT22;21665;40.108;18.302;2024-03-22T08:07:37;16.30;99.90
35563;DHT22;21665;40.108;18.302;2024-03-22T08:10:04;16.70;99.90
35563;DHT22;21665;40.108;18.302;2024-03-22T08:12:30;16.70;99.90
35563;DHT22;21665;40.108;18.302;2024-03-22T08:14:56;16.60;99.90
35563;DHT22;21665;40.108;18.302;2024-03-22T08:17:23;16.40;99.90
35563;DHT22;21665;40.108;18.302;2024-03-22T08:19:49;16.70;99.90
35563;DHT22;21665;40.108;18.302;2024-03-22T08:22:15;16.60;99.90
35563;DHT22;21665;40.108;18.302;2024-03-22T08:24:41;16.50;99.90
35563;DHT22;21665;40.108;18.302;2024-03-22T08:27:08;16.40;99.90
35563;DHT22;21665;40.108;18.302;2024-03-22T08:29:34;16.40;99.90
35563;DHT22;21665;40.108;18.302;2024-03-22T08:32:01;16.20;99.90
35563;DHT22;21665;40.108;18.302;2024-03-22T08:34:31;16.30;99.90
35563;DHT22;21665;40.108;18.302;2024-03-22T08:36:58;16.30;99.90
35563;DHT22;21665;40.108;18.302;2024-03-22T08:39:25;16.40;99.90
35563;DHT22;21665;40.108;18.302;2024-03-22T08:41:54;16.60;99.90
35563;DHT22;21665;40.108;18.302;2024-03-22T08:44:21;16.40;99.90
35563;DHT22;21665;40.108;18.302;2024-03-22T08:46:47;16.30;99.90
35563;DHT22;21665;40.108;18.302;2024-03-22T08:49:14;16.20;99.90
35563;DHT22;21665;40.108;18.302;2024-03-22T08:51:40;16.10;99.90
35563;DHT22;21665;40.108;18.302;2024-03-22T08:54:07;16.30;99.90
35563;DHT22;21665;40.108;18.302;2024-03-22T08:56:34;16.40;99.90
35563;DHT22;21665;40.108;18.302;2024-03-22T08:59:00;16.30;99.90
35563;DHT22;21665;40.108;18.302;2024-03-22T09:01:26;16.50;99.90
35563;DHT22;21665;40.108;18.302;2024-03-22T09:03:53;17.00;99.90
35563;DHT22;21665;40.108;18.302;2024-03-22T09:06:19;17.30;99.90
35563;DHT22;21665;40.108;18.302;2024-03-22T09:08:45;17.10;99.90
35563;DHT22;21665;40.108;18.302;2024-03-22T09:11:12;17.00;99.90
35563;DHT22;21665;40.108;18.302;2024-03-22T09:13:38;16.80;99.90
35563;DHT22;21665;40.108;18.302;2024-03-22T09:16:05;16.70;99.90
35563;DHT22;21665;40.108;18.302;2024-03-22T09:18:31;16.90;99.90
35563;DHT22;21665;40.108;18.302;2024-03-22T09:20:58;17.20;99.90
35563;DHT22;21665;40.108;18.302;2024-03-22T09:23:25;17.50;99.90
35563;DHT22;21665;40.108;18.302;2024-03-22T09:25:51;18.00;99.90
35563;DHT22;21665;40.108;18.302;2024-03-22T09:28:17;18.30;99.90
35563;DHT22;21665;40.108;18.302;2024-03-22T09:30:43;18.20;99.90
35563;DHT22;21665;40.108;18.302;2024-03-22T09:33:10;18.10;99.90
35563;DHT22;21665;40.108;18.302;2024-03-22T09:35:37;17.80;99.90
35563;DHT22;21665;40.108;18.302;2024-03-22T09:38:03;17.80;99.90
35563;DHT22;21665;40.108;18.302;2024-03-22T09:40:30;17.80;99.90
35563;DHT22;21665;40.108;18.302;2024-03-22T09:43:02;17.40;99.90
35563;DHT22;21665;40.108;18.302;2024-03-22T09:45:31;17.50;99.90
35563;DHT22;21665;40.108;18.302;2024-03-22T09:47:58;17.30;99.90
35563;DHT22;21665;40.108;18.302;2024-03-22T09:50:26;17.20;99.90
35563;DHT22;21665;40.108;18.302;2024-03-22T09:52:53;17.00;99.90
35563;DHT22;21665;40.108;18.302;2024-03-22T09:55:22;16.80;99.90
35563;DHT22;21665;40.108;18.302;2024-03-22T09:57:50;17.00;99.90
35563;DHT22;21665;40.108;18.302;2024-03-22T10:00:20;17.00;99.90
35563;DHT22;21665;40.108;18.302;2024-03-22T10:02:52;17.10;99.90
35563;DHT22;21665;40.108;18.302;2024-03-22T10:05:21;17.10;99.90
35563;DHT22;21665;40.108;18.302;2024-03-22T10:07:48;17.00;99.90
35563;DHT22;21665;40.108;18.302;2024-03-22T10:10:15;16.90;99.90
35563;DHT22;21665;40.108;18.302;2024-03-22T10:12:42;16.90;99.90
35563;DHT22;21665;40.108;18.302;2024-03-22T10:15:08;16.90;99.90
35563;DHT22;21665;40.108;18.302;2024-03-22T10:17:35;16.70;99.90
35563;DHT22;21665;40.108;18.302;2024-03-22T10:20:02;16.60;99.90
35563;DHT22;21665;40.108;18.302;2024-03-22T10:22:29;16.50;99.90
35563;DHT22;21665;40.108;18.302;2024-03-22T10:24:58;16.70;99.90
35563;DHT22;21665;40.108;18.302;2024-03-22T10:27:28;16.90;99.90
35563;DHT22;21665;40.108;18.302;2024-03-22T10:29:55;17.00;99.90
35563;DHT22;21665;40.108;18.302;2024-03-22T10:32:23;16.80;99.90
35563;DHT22;21665;40.108;18.302;2024-03-22T10:34:50;16.80;99.90
35563;DHT22;21665;40.108;18.302;2024-03-22T10:37:17;16.60;99.90
35563;DHT22;21665;40.108;18.302;2024-03-22T10:39:43;16.30;99.90
35563;DHT22;21665;40.108;18.302;2024-03-22T10:42:14;16.40;99.90
35563;DHT22;21665;40.108;18.302;2024-03-22T10:44:42;16.20;99.90
35563;DHT22;21665;40.108;18.302;2024-03-22T10:47:14;16.00;99.90
35563;DHT22;21665;40.108;18.302;2024-03-22T10:49:45;15.90;99.90
35563;DHT22;21665;40.108;18.302;2024-03-22T10:52:14;16.00;99.90
35563;DHT22;21665;40.108;18.302;2024-03-22T10:54:44;16.10;99.90
35563;DHT22;21665;40.108;18.302;2024-03-22T10:57:15;16.00;99.90
35563;DHT22;21665;40.108;18.302;2024-03-22T10:59:42;15.90;99.90
35563;DHT22;21665;40.108;18.302;2024-03-22T11:02:11;16.10;99.90
35563;DHT22;21665;40.108;18.302;2024-03-22T11:04:38;15.90;99.90
35563;DHT22;21665;40.108;18.302;2024-03-22T11:07:05;15.80;99.90
35563;DHT22;21665;40.108;18.302;2024-03-22T11:09:31;15.70;99.90
35563;DHT22;21665;40.108;18.302;2024-03-22T11:11:57;15.90;99.90
35563;DHT22;21665;40.108;18.302;2024-03-22T11:14:25;16.00;99.90
35563;DHT22;21665;40.108;18.302;2024-03-22T11:16:52;16.10;99.90
35563;DHT22;21665;40.108;18.302;2024-03-22T11:19:21;16.20;99.90
35563;DHT22;21665;40.108;18.302;2024-03-22T11:21:47;16.30;99.90
35563;DHT22;21665;40.108;18.302;2024-03-22T11:24:15;16.20;99.90
35563;DHT22;21665;40.108;18.302;2024-03-22T11:26:42;16.10;99.90
35563;DHT22;21665;40.108;18.302;2024-03-22T11:29:11;16.10;99.90
35563;DHT22;21665;40.108;18.302;2024-03-22T11:31:37;16.20;99.90
35563;DHT22;21665;40.108;18.302;2024-03-22T11:34:04;16.20;99.90
35563;DHT22;21665;40.108;18.302;2024-03-22T11:36:30;16.40;99.90
35563;DHT22;21665;40.108;18.302;2024-03-22T11:38:56;16.40;99.90
35563;DHT22;21665;40.108;18.302;2024-03-22T11:41:27;16.40;99.90
35563;DHT22;21665;40.108;18.302;2024-03-22T11:43:55;16.00;99.90
35563;DHT22;21665;40.108;18.302;2024-03-22T11:46:24;16.00;99.90
35563;DHT22;21665;40.108;18.302;2024-03-22T11:48:55;16.10;99.90
35563;DHT22;21665;40.108;18.302;2024-03-22T11:51:23;16.00;99.90
35563;DHT22;21665;40.108;18.302;2024-03-22T11:53:53;16.20;99.90
35563;DHT22;21665;40.108;18.302;2024-03-22T11:56:22;16.30;99.90
35563;DHT22;21665;40.108;18.302;2024-03-22T11:58:48;16.40;99.90
35563;DHT22;21665;40.108;18.302;2024-03-22T12:01:18;16.60;99.90
35563;DHT22;21665;40.108;18.302;2024-03-22T12:03:48;16.90;99.90
35563;DHT22;21665;40.108;18.302;2024-03-22T12:06:15;17.00;99.90
35563;DHT22;21665;40.108;18.302;2024-03-22T12:08:42;16.90;99.90
35563;DHT22;21665;40.108;18.302;2024-03-22T12:11:08;16.70;99.90
35563;DHT22;21665;40.108;18.302;2024-03-22T12:13:37;16.70;99.90
35563;DHT22;21665;40.108;18.302;2024-03-22T12:16:04;16.80;99.90
35563;DHT22;21665;40.108;18.302;2024-03-22T12:18:31;16.80;99.90
35563;DHT22;21665;40.108;18.302;2024-03-22T12:20:57;16.60;99.90
35563;DHT22;21665;40.108;18.302;2024-03-22T12:23:24;16.80;99.90
35563;DHT22;21665;40.108;18.302;2024-03-22T12:25:51;17.10;99.90
35563;DHT22;21665;40.108;18.302;2024-03-22T12:28:18;17.30;99.90
35563;DHT22;21665;40.108;18.302;2024-03-22T12:30:47;16.90;99.90
35563;DHT22;21665;40.108;18.302;2024-03-22T12:33:14;16.80;99.90
35563;DHT22;21665;40.108;18.302;2024-03-22T12:35:40;16.60;99.90
35563;DHT22;21665;40.108;18.302;2024-03-22T12:38:07;16.90;99.90
35563;DHT22;21665;40.108;18.302;2024-03-22T12:40:40;17.10;99.90
35563;DHT22;21665;40.108;18.302;2024-03-22T12:43:09;17.00;99.90
35563;DHT22;21665;40.108;18.302;2024-03-22T12:45:37;17.00;99.90
35563;DHT22;21665;40.108;18.302;2024-03-22T12:48:04;16.80;99.90
35563;DHT22;21665;40.108;18.302;2024-03-22T12:50:31;16.80;99.90
35563;DHT22;21665;40.108;18.302;2024-03-22T12:52:57;16.90;99.90
35563;DHT22;21665;40.108;18.302;2024-03-22T12:55:24;17.00;99.90
35563;DHT22;21665;40.108;18.302;2024-03-22T12:57:51;16.90;99.90
35563;DHT22;21665;40.108;18.302;2024-03-22T13:00:18;16.80;99.90
35563;DHT22;21665;40.108;18.302;2024-03-22T13:02:47;16.80;99.90
35563;DHT22;21665;40.108;18.302;2024-03-22T13:05:14;16.50;99.90
35563;DHT22;21665;40.108;18.302;2024-03-22T13:07:41;16.20;99.90
35563;DHT22;21665;40.108;18.302;2024-03-22T13:10:08;16.20;99.90
35563;DHT22;21665;40.108;18.302;2024-03-22T13:12:35;16.20;99.90
35563;DHT22;21665;40.108;18.302;2024-03-22T13:15:02;16.20;99.90
35563;DHT22;21665;40.108;18.302;2024-03-22T13:17:29;16.30;99.90
35563;DHT22;21665;40.108;18.302;2024-03-22T13:19:56;16.50;99.90
35563;DHT22;21665;40.108;18.302;2024-03-22T13:22:22;17.00;99.90
35563;DHT22;21665;40.108;18.302;2024-03-22T13:24:49;17.00;99.90
35563;DHT22;21665;40.108;18.302;2024-03-22T13:27:17;17.20;99.90
35563;DHT22;21665;40.108;18.302;2024-03-22T13:29:45;17.00;99.90
35563;DHT22;21665;40.108;18.302;2024-03-22T13:32:12;16.80;99.90
35563;DHT22;21665;40.108;18.302;2024-03-22T13:34:38;17.00;99.90
35563;DHT22;21665;40.108;18.302;2024-03-22T13:37:05;17.20;99.90
35563;DHT22;21665;40.108;18.302;2024-03-22T13:39:34;17.20;99.90
35563;DHT22;21665;40.108;18.302;2024-03-22T13:42:02;17.10;99.90
35563;DHT22;21665;40.108;18.302;2024-03-22T13:44:32;16.90;99.90
35563;DHT22;21665;40.108;18.302;2024-03-22T13:47:02;16.70;99.90
35563;DHT22;21665;40.108;18.302;2024-03-22T13:49:31;16.50;99.90
35563;DHT22;21665;40.108;18.302;2024-03-22T13:51:58;16.50;99.90
35563;DHT22;21665;40.108;18.302;2024-03-22T13:54:25;16.50;99.90
35563;DHT22;21665;40.108;18.302;2024-03-22T13:56:52;16.80;99.90
35563;DHT22;21665;40.108;18.302;2024-03-22T13:59:19;17.00;99.90
35563;DHT22;21665;40.108;18.302;2024-03-22T14:01:45;16.90;99.90
35563;DHT22;21665;40.108;18.302;2024-03-22T14:04:14;16.60;99.90
35563;DHT22;21665;40.108;18.302;2024-03-22T14:06:45;16.70;99.90
35563;DHT22;21665;40.108;18.302;2024-03-22T14:09:11;16.70;99.90
35563;DHT22;21665;40.108;18.302;2024-03-22T14:11:42;16.70;99.90
35563;DHT22;21665;40.108;18.302;2024-03-22T14:14:09;16.60;99.90
35563;DHT22;21665;40.108;18.302;2024-03-22T14:16:40;16.40;99.90
35563;DHT22;21665;40.108;18.302;2024-03-22T14:19:07;16.30;99.90
35563;DHT22;21665;40.108;18.302;2024-03-22T14:21:36;16.10;99.90
35563;DHT22;21665;40.108;18.302;2024-03-22T14:24:05;16.10;99.90
35563;DHT22;21665;40.108;18.302;2024-03-22T14:26:34;16.20;99.90
35563;DHT22;21665;40.108;18.302;2024-03-22T14:29:00;16.10;99.90
35563;DHT22;21665;40.108;18.302;2024-03-22T14:31:33;16.00;99.90
35563;DHT22;21665;40.108;18.302;2024-03-22T14:33:59;15.90;99.90
35563;DHT22;21665;40.108;18.302;2024-03-22T14:36:29;15.80;99.90
35563;DHT22;21665;40.108;18.302;2024-03-22T14:38:55;15.80;99.90
35563;DHT22;21665;40.108;18.302;2024-03-22T14:41:22;15.70;99.90
35563;DHT22;21665;40.108;18.302;2024-03-22T14:43:48;15.80;99.90
35563;DHT22;21665;40.108;18.302;2024-03-22T14:46:15;15.80;99.90
35563;DHT22;21665;40.108;18.302;2024-03-22T14:48:42;15.80;99.90
35563;DHT22;21665;40.108;18.302;2024-03-22T14:51:09;15.90;99.90
35563;DHT22;21665;40.108;18.302;2024-03-22T14:53:36;15.80;99.90
35563;DHT22;21665;40.108;18.302;2024-03-22T14:56:04;15.90;99.90
35563;DHT22;21665;40.108;18.302;2024-03-22T14:58:31;16.10;99.90
35563;DHT22;21665;40.108;18.302;2024-03-22T15:01:02;16.20;99.90
35563;DHT22;21665;40.108;18.302;2024-03-22T15:03:29;16.30;99.90
35563;DHT22;21665;40.108;18.302;2024-03-22T15:05:58;16.30;99.90
35563;DHT22;21665;40.108;18.302;2024-03-22T15:08:28;16.00;99.90
35563;DHT22;21665;40.108;18.302;2024-03-22T15:10:55;16.00;99.90
35563;DHT22;21665;40.108;18.302;2024-03-22T15:13:21;16.00;99.90
35563;DHT22;21665;40.108;18.302;2024-03-22T15:15:55;16.00;99.90
35563;DHT22;21665;40.108;18.302;2024-03-22T15:18:22;16.00;99.90
35563;DHT22;21665;40.108;18.302;2024-03-22T15:20:49;16.00;99.90